sensor_id;sensor_type;location;lat;lon;timestamp;pressure;altitude;pressure_sealevel;temperature;humidity
53940;BME280;39850;43.324;21.916;2024-01-27T00:03:08;999.0;;;2.7;71.0
53940;BME280;39850;43.324;21.916;2024-01-27T00:07:44;999.0;;;2.6;71.0
53940;BME280;39850;43.324;21.916;2024-01-27T00:12:20;999.0;;;2.6;71.0
53940;BME280;39850;43.324;21.916;2024-01-27T00:16:56;999.0;;;2.6;71.0
53940;BME280;39850;43.324;21.916;2024-01-27T00:21:32;999.0;;;2.6;71.0
53940;BME280;39850;43.324;21.916;2024-01-27T00:26:09;999.0;;;2.5;71.0
53940;BME280;39850;43.324;21.916;2024-01-27T00:30:45;999.0;;;2.5;71.0
53940;BME280;39850;43.324;21.916;2024-01-27T01:07:33;999.0;;;3.5;69.0
53940;BME280;39850;43.324;21.916;2024-01-27T01:12:10;999.0;;;3.5;69.0
53940;BME280;39850;43.324;21.916;2024-01-27T01:16:46;999.0;;;3.5;69.0
53940;BME280;39850;43.324;21.916;2024-01-27T01:21:23;999.0;;;3.5;69.0
53940;BME280;39850;43.324;21.916;2024-01-27T01:25:59;999.0;;;3.5;69.0
53940;BME280;39850;43.324;21.916;2024-01-27T01:30:36;999.0;;;3.5;69.0
53940;BME280;39850;43.324;21.916;2024-01-27T01:35:15;999.0;;;3.5;69.0
53940;BME280;39850;43.324;21.916;2024-01-27T01:39:52;999.0;;;3.5;69.0
53940;BME280;39850;43.324;21.916;2024-01-27T01:44:31;999.0;;;3.5;69.0
53940;BME280;39850;43.324;21.916;2024-01-27T01:49:08;999.0;;;3.5;69.0
53940;BME280;39850;43.324;21.916;2024-01-27T01:53:49;999.0;;;3.5;69.0
53940;BME280;39850;43.324;21.916;2024-01-27T02:26:11;999.0;;;4.5;71.0
53940;BME280;39850;43.324;21.916;2024-01-27T02:30:48;999.0;;;4.5;71.0
53940;BME280;39850;43.324;21.916;2024-01-27T02:35:25;999.0;;;4.3;72.0
53940;BME280;39850;43.324;21.916;2024-01-27T02:40:03;999.0;;;4.3;72.0
53940;BME280;39850;43.324;21.916;2024-01-27T02:44:40;999.0;;;4.1;73.0
53940;BME280;39850;43.324;21.916;2024-01-27T02:49:17;999.0;;;4.1;73.0
53940;BME280;39850;43.324;21.916;2024-01-27T02:53:53;999.0;;;4.1;73.0
53940;BME280;39850;43.324;21.916;2024-01-27T02:58:29;999.0;;;3.8;73.0
53940;BME280;39850;43.324;21.916;2024-01-27T03:03:05;999.0;;;3.8;73.0
53940;BME280;39850;43.324;21.916;2024-01-27T03:07:41;999.0;;;3.5;73.0
53940;BME280;39850;43.324;21.916;2024-01-27T03:12:18;999.0;;;3.5;73.0
53940;BME280;39850;43.324;21.916;2024-01-27T03:49:06;998.0;;;3.6;78.0
53940;BME280;39850;43.324;21.916;2024-01-27T03:53:42;998.0;;;3.6;78.0
53940;BME280;39850;43.324;21.916;2024-01-27T03:58:18;998.0;;;3.6;79.0
53940;BME280;39850;43.324;21.916;2024-01-27T04:02:55;998.0;;;3.6;79.0
53940;BME280;39850;43.324;21.916;2024-01-27T04:07:31;998.0;;;3.6;79.0
53940;BME280;39850;43.324;21.916;2024-01-27T04:12:08;998.0;;;3.6;79.0
53940;BME280;39850;43.324;21.916;2024-01-27T04:16:44;998.0;;;3.6;79.0
53940;BME280;39850;43.324;21.916;2024-01-27T04:21:21;998.0;;;3.6;79.0
53940;BME280;39850;43.324;21.916;2024-01-27T04:25:57;998.0;;;3.6;80.0
53940;BME280;39850;43.324;21.916;2024-01-27T04:30:33;998.0;;;3.6;80.0
53940;BME280;39850;43.324;21.916;2024-01-27T05:07:23;999.0;;;4.3;82.0
53940;BME280;39850;43.324;21.916;2024-01-27T05:12:00;999.0;;;4.3;82.0
53940;BME280;39850;43.324;21.916;2024-01-27T05:16:37;1000.0;;;4.0;82.0
53940;BME280;39850;43.324;21.916;2024-01-27T05:21:13;1000.0;;;4.0;82.0
53940;BME280;39850;43.324;21.916;2024-01-27T05:25:49;1000.0;;;3.7;82.0
53940;BME280;39850;43.324;21.916;2024-01-27T05:30:25;1000.0;;;3.7;82.0
53940;BME280;39850;43.324;21.916;2024-01-27T05:35:02;1000.0;;;3.6;82.0
53940;BME280;39850;43.324;21.916;2024-01-27T05:39:39;1000.0;;;3.6;82.0
53940;BME280;39850;43.324;21.916;2024-01-27T05:44:15;1000.0;;;3.6;82.0
53940;BME280;39850;43.324;21.916;2024-01-27T05:48:52;1000.0;;;3.5;82.0
53940;BME280;39850;43.324;21.916;2024-01-27T05:53:29;1000.0;;;3.5;82.0
53940;BME280;39850;43.324;21.916;2024-01-27T06:25:43;1000.0;;;3.5;83.0
53940;BME280;39850;43.324;21.916;2024-01-27T06:30:20;1000.0;;;3.5;83.0
53940;BME280;39850;43.324;21.916;2024-01-27T06:34:56;1000.0;;;3.5;83.0
53940;BME280;39850;43.324;21.916;2024-01-27T06:39:33;1000.0;;;3.5;84.0
53940;BME280;39850;43.324;21.916;2024-01-27T06:44:09;1000.0;;;3.5;84.0
53940;BME280;39850;43.324;21.916;2024-01-27T06:48:45;1001.0;;;3.5;84.0
53940;BME280;39850;43.324;21.916;2024-01-27T06:53:22;1001.0;;;3.5;84.0
53940;BME280;39850;43.324;21.916;2024-01-27T06:57:58;1001.0;;;3.5;84.0
53940;BME280;39850;43.324;21.916;2024-01-27T07:02:34;1001.0;;;3.5;84.0
53940;BME280;39850;43.324;21.916;2024-01-27T07:07:11;1001.0;;;3.5;85.0
53940;BME280;39850;43.324;21.916;2024-01-27T07:11:47;1001.0;;;3.5;85.0
53940;BME280;39850;43.324;21.916;2024-01-27T07:48:45;1001.0;;;5.1;84.0
53940;BME280;39850;43.324;21.916;2024-01-27T07:53:21;1001.0;;;5.1;84.0
53940;BME280;39850;43.324;21.916;2024-01-27T07:57:57;1001.0;;;5.3;84.0
53940;BME280;39850;43.324;21.916;2024-01-27T08:02:34;1001.0;;;5.3;84.0
53940;BME280;39850;43.324;21.916;2024-01-27T08:07:10;1001.0;;;5.4;84.0
53940;BME280;39850;43.324;21.916;2024-01-27T08:11:46;1001.0;;;5.4;84.0
53940;BME280;39850;43.324;21.916;2024-01-27T08:16:23;1001.0;;;5.4;84.0
53940;BME280;39850;43.324;21.916;2024-01-27T08:20:59;1001.0;;;5.4;84.0
53940;BME280;39850;43.324;21.916;2024-01-27T08:25:35;1001.0;;;5.4;83.0
53940;BME280;39850;43.324;21.916;2024-01-27T08:30:14;1001.0;;;5.4;83.0
53940;BME280;39850;43.324;21.916;2024-01-27T08:34:51;1001.0;;;5.4;83.0
53940;BME280;39850;43.324;21.916;2024-01-27T09:07:05;1002.0;;;4.6;79.0
53940;BME280;39850;43.324;21.916;2024-01-27T09:11:42;1002.0;;;4.6;79.0
53940;BME280;39850;43.324;21.916;2024-01-27T09:16:19;1002.0;;;4.8;78.0
53940;BME280;39850;43.324;21.916;2024-01-27T09:20:55;1002.0;;;4.8;78.0
53940;BME280;39850;43.324;21.916;2024-01-27T09:25:31;1002.0;;;4.8;78.0
53940;BME280;39850;43.324;21.916;2024-01-27T09:30:11;1002.0;;;4.9;78.0
53940;BME280;39850;43.324;21.916;2024-01-27T09:34:47;1002.0;;;4.9;78.0
53940;BME280;39850;43.324;21.916;2024-01-27T09:39:23;1002.0;;;5.2;76.0
53940;BME280;39850;43.324;21.916;2024-01-27T09:44:04;1002.0;;;5.2;76.0
53940;BME280;39850;43.324;21.916;2024-01-27T09:48:42;1003.0;;;5.5;75.0
53940;BME280;39850;43.324;21.916;2024-01-27T09:53:20;1003.0;;;5.5;75.0
53940;BME280;39850;43.324;21.916;2024-01-27T10:30:28;1003.0;;;5.3;73.0
53940;BME280;39850;43.324;21.916;2024-01-27T10:35:08;1003.0;;;5.3;73.0
53940;BME280;39850;43.324;21.916;2024-01-27T10:39:44;1003.0;;;5.4;72.0
53940;BME280;39850;43.324;21.916;2024-01-27T10:44:21;1003.0;;;5.4;72.0
53940;BME280;39850;43.324;21.916;2024-01-27T10:49:02;1003.0;;;5.5;72.0
53940;BME280;39850;43.324;21.916;2024-01-27T10:53:49;1003.0;;;5.5;72.0
53940;BME280;39850;43.324;21.916;2024-01-27T10:58:27;1003.0;;;6.0;71.0
53940;BME280;39850;43.324;21.916;2024-01-27T11:03:11;1003.0;;;6.0;71.0
53940;BME280;39850;43.324;21.916;2024-01-27T11:07:47;1003.0;;;6.4;70.0
53940;BME280;39850;43.324;21.916;2024-01-27T11:12:27;1003.0;;;6.4;70.0
53940;BME280;39850;43.324;21.916;2024-01-27T11:49:34;1002.0;;;6.4;64.0
53940;BME280;39850;43.324;21.916;2024-01-27T11:54:11;1002.0;;;6.4;64.0
53940;BME280;39850;43.324;21.916;2024-01-27T11:58:49;1002.0;;;6.4;64.0
53940;BME280;39850;43.324;21.916;2024-01-27T12:03:26;1002.0;;;6.4;64.0
53940;BME280;39850;43.324;21.916;2024-01-27T12:08:04;1002.0;;;6.0;63.0
53940;BME280;39850;43.324;21.916;2024-01-27T12:12:44;1002.0;;;6.0;63.0
53940;BME280;39850;43.324;21.916;2024-01-27T12:17:24;1002.0;;;5.5;62.0
53940;BME280;39850;43.324;21.916;2024-01-27T12:22:01;1002.0;;;5.5;62.0
53940;BME280;39850;43.324;21.916;2024-01-27T12:26:37;1002.0;;;5.5;62.0
53940;BME280;39850;43.324;21.916;2024-01-27T12:31:17;1002.0;;;5.5;62.0
53940;BME280;39850;43.324;21.916;2024-01-27T12:35:54;1002.0;;;5.5;62.0
53940;BME280;39850;43.324;21.916;2024-01-27T13:26:36;1002.0;;;8.2;49.0
53940;BME280;39850;43.324;21.916;2024-01-27T13:31:12;1002.0;;;8.2;49.0
53940;BME280;39850;43.324;21.916;2024-01-27T13:35:49;1002.0;;;8.2;49.0
53940;BME280;39850;43.324;21.916;2024-01-27T13:40:25;1002.0;;;8.2;49.0
53940;BME280;39850;43.324;21.916;2024-01-27T13:45:01;1002.0;;;8.2;49.0
53940;BME280;39850;43.324;21.916;2024-01-27T13:49:39;1002.0;;;8.2;49.0
53940;BME280;39850;43.324;21.916;2024-01-27T13:54:15;1002.0;;;8.2;49.0
53940;BME280;39850;43.324;21.916;2024-01-27T14:31:08;1003.0;;;6.4;55.0
53940;BME280;39850;43.324;21.916;2024-01-27T14:35:44;1003.0;;;6.4;55.0
53940;BME280;39850;43.324;21.916;2024-01-27T14:40:20;1003.0;;;6.4;55.0
53940;BME280;39850;43.324;21.916;2024-01-27T14:44:56;1003.0;;;6.4;55.0
53940;BME280;39850;43.324;21.916;2024-01-27T14:49:33;1003.0;;;6.4;55.0
53940;BME280;39850;43.324;21.916;2024-01-27T14:54:09;1003.0;;;6.4;55.0
53940;BME280;39850;43.324;21.916;2024-01-27T15:49:27;1003.0;;;5.3;60.0
53940;BME280;39850;43.324;21.916;2024-01-27T15:54:04;1003.0;;;5.3;60.0
53940;BME280;39850;43.324;21.916;2024-01-27T15:58:40;1003.0;;;5.6;59.0
53940;BME280;39850;43.324;21.916;2024-01-27T16:03:16;1003.0;;;5.6;59.0
53940;BME280;39850;43.324;21.916;2024-01-27T16:07:52;1003.0;;;6.0;59.0
53940;BME280;39850;43.324;21.916;2024-01-27T16:12:29;1003.0;;;6.0;59.0
53940;BME280;39850;43.324;21.916;2024-01-27T16:17:06;1003.0;;;6.2;59.0
53940;BME280;39850;43.324;21.916;2024-01-27T16:21:42;1003.0;;;6.2;59.0
53940;BME280;39850;43.324;21.916;2024-01-27T16:26:18;1003.0;;;6.2;59.0
53940;BME280;39850;43.324;21.916;2024-01-27T16:30:54;1003.0;;;6.4;59.0
53940;BME280;39850;43.324;21.916;2024-01-27T16:35:30;1003.0;;;6.4;59.0
53940;BME280;39850;43.324;21.916;2024-01-27T17:07:44;1004.0;;;7.3;57.0
53940;BME280;39850;43.324;21.916;2024-01-27T17:12:20;1004.0;;;7.3;57.0
53940;BME280;39850;43.324;21.916;2024-01-27T17:16:56;1004.0;;;7.3;57.0
53940;BME280;39850;43.324;21.916;2024-01-27T17:21:32;1004.0;;;7.3;57.0
53940;BME280;39850;43.324;21.916;2024-01-27T17:26:09;1004.0;;;7.3;57.0
53940;BME280;39850;43.324;21.916;2024-01-27T17:30:45;1004.0;;;7.3;57.0
53940;BME280;39850;43.324;21.916;2024-01-27T17:35:21;1004.0;;;7.3;57.0
53940;BME280;39850;43.324;21.916;2024-01-27T17:39:58;1004.0;;;7.3;57.0
53940;BME280;39850;43.324;21.916;2024-01-27T17:44:35;1004.0;;;7.3;57.0
53940;BME280;39850;43.324;21.916;2024-01-27T17:49:12;1004.0;;;7.3;57.0
53940;BME280;39850;43.324;21.916;2024-01-27T17:53:49;1004.0;;;7.3;57.0
53940;BME280;39850;43.324;21.916;2024-01-27T18:30:40;1004.0;;;10.7;54.0
53940;BME280;39850;43.324;21.916;2024-01-27T18:35:17;1004.0;;;10.7;54.0
53940;BME280;39850;43.324;21.916;2024-01-27T18:39:53;1004.0;;;11.1;53.0
53940;BME280;39850;43.324;21.916;2024-01-27T18:44:30;1004.0;;;11.1;53.0
53940;BME280;39850;43.324;21.916;2024-01-27T18:49:06;1004.0;;;11.6;52.0
53940;BME280;39850;43.324;21.916;2024-01-27T18:53:43;1004.0;;;11.6;52.0
53940;BME280;39850;43.324;21.916;2024-01-27T18:58:19;1004.0;;;11.7;51.0
53940;BME280;39850;43.324;21.916;2024-01-27T19:02:55;1004.0;;;11.7;51.0
53940;BME280;39850;43.324;21.916;2024-01-27T19:07:31;1004.0;;;11.7;51.0
53940;BME280;39850;43.324;21.916;2024-01-27T19:12:09;1004.0;;;11.8;50.0
53940;BME280;39850;43.324;21.916;2024-01-27T19:16:45;1004.0;;;11.8;50.0
53940;BME280;39850;43.324;21.916;2024-01-27T19:48:59;1004.0;;;7.3;55.0
53940;BME280;39850;43.324;21.916;2024-01-27T19:53:35;1004.0;;;7.3;55.0
53940;BME280;39850;43.324;21.916;2024-01-27T19:58:12;1004.0;;;6.8;55.0
53940;BME280;39850;43.324;21.916;2024-01-27T20:02:48;1004.0;;;6.8;55.0
53940;BME280;39850;43.324;21.916;2024-01-27T20:07:24;1004.0;;;6.8;55.0
53940;BME280;39850;43.324;21.916;2024-01-27T20:12:00;1004.0;;;6.3;55.0
53940;BME280;39850;43.324;21.916;2024-01-27T20:16:36;1004.0;;;6.3;55.0
53940;BME280;39850;43.324;21.916;2024-01-27T20:21:13;1004.0;;;6.2;57.0
53940;BME280;39850;43.324;21.916;2024-01-27T20:25:50;1004.0;;;6.2;57.0
53940;BME280;39850;43.324;21.916;2024-01-27T20:30:26;1004.0;;;6.3;58.0
53940;BME280;39850;43.324;21.916;2024-01-27T20:35:06;1004.0;;;6.3;58.0
53940;BME280;39850;43.324;21.916;2024-01-27T21:11:56;1004.0;;;4.7;64.0
53940;BME280;39850;43.324;21.916;2024-01-27T21:16:33;1004.0;;;4.7;64.0
53940;BME280;39850;43.324;21.916;2024-01-27T21:21:09;1004.0;;;5.1;63.0
53940;BME280;39850;43.324;21.916;2024-01-27T21:25:45;1004.0;;;5.1;63.0
53940;BME280;39850;43.324;21.916;2024-01-27T21:30:21;1005.0;;;5.4;62.0
53940;BME280;39850;43.324;21.916;2024-01-27T21:34:58;1005.0;;;5.4;62.0
53940;BME280;39850;43.324;21.916;2024-01-27T21:39:34;1005.0;;;5.8;62.0
53940;BME280;39850;43.324;21.916;2024-01-27T21:44:10;1005.0;;;5.8;62.0
53940;BME280;39850;43.324;21.916;2024-01-27T21:48:46;1005.0;;;6.1;61.0
53940;BME280;39850;43.324;21.916;2024-01-27T21:53:22;1005.0;;;6.1;61.0
53940;BME280;39850;43.324;21.916;2024-01-27T21:57:59;1005.0;;;6.1;61.0
53940;BME280;39850;43.324;21.916;2024-01-27T22:30:13;1005.0;;;6.4;59.0
53940;BME280;39850;43.324;21.916;2024-01-27T22:34:49;1005.0;;;6.4;59.0
53940;BME280;39850;43.324;21.916;2024-01-27T22:39:26;1005.0;;;6.4;59.0
53940;BME280;39850;43.324;21.916;2024-01-27T22:44:02;1005.0;;;6.4;59.0
53940;BME280;39850;43.324;21.916;2024-01-27T22:48:38;1005.0;;;6.4;59.0
53940;BME280;39850;43.324;21.916;2024-01-27T22:53:15;1005.0;;;6.4;59.0
53940;BME280;39850;43.324;21.916;2024-01-27T22:57:51;1005.0;;;6.4;59.0
53940;BME280;39850;43.324;21.916;2024-01-27T23:02:27;1005.0;;;6.4;59.0
53940;BME280;39850;43.324;21.916;2024-01-27T23:07:04;1005.0;;;6.4;59.0
53940;BME280;39850;43.324;21.916;2024-01-27T23:11:40;1005.0;;;6.4;59.0
53940;BME280;39850;43.324;21.916;2024-01-27T23:16:17;1005.0;;;6.4;59.0
53940;BME280;39850;43.324;21.916;2024-01-27T23:53:07;1006.0;;;4.6;71.0
53940;BME280;39850;43.324;21.916;2024-01-27T23:57:43;1006.0;;;4.6;71.0
